createdAt,value
2022-09-12T00:02:33.779Z,95923.16
2022-09-12T00:21:03.725Z,95914.70
2022-09-12T00:36:15.300Z,95907.42
2022-09-12T00:39:39.549Z,95904.11
2022-09-12T00:43:13.414Z,95906.48
2022-09-12T00:46:55.339Z,95907.47
2022-09-12T00:50:48.325Z,95907.81
2022-09-12T00:57:37.630Z,95903.80
2022-09-12T01:00:55.684Z,95906.48
2022-09-12T01:04:10.572Z,95903.67
2022-09-12T01:08:13.591Z,95903.64
2022-09-12T01:14:37.443Z,95904.70
2022-09-12T01:21:23.917Z,95909.52
2022-09-12T01:24:52.485Z,95917.82
2022-09-12T01:28:12.812Z,95920.64
2022-09-12T01:34:47.661Z,95917.50
2022-09-12T01:41:49.048Z,95921.99
2022-09-12T01:45:08.088Z,95919.55
2022-09-12T01:59:28.752Z,95909.28
2022-09-12T02:03:17.028Z,95909.70
2022-09-12T02:07:00.484Z,95909.85
2022-09-12T02:10:32.910Z,95899.93
2022-09-12T02:13:52.445Z,95901.23
2022-09-12T02:17:47.107Z,95903.13
2022-09-12T02:20:58.192Z,95901.55
2022-09-12T02:23:57.256Z,95901.66
2022-09-12T02:26:52.262Z,95901.56
2022-09-12T02:29:42.747Z,95905.77
2022-09-12T02:32:28.482Z,95905.64
2022-09-12T02:35:33.241Z,95907.45
2022-09-12T02:38:42.190Z,95906.68
2022-09-12T02:41:33.654Z,95914.35
2022-09-12T02:44:04.679Z,95912.73
2022-09-12T02:47:27.547Z,95915.83
2022-09-12T02:50:36.379Z,95911.84
2022-09-12T02:53:11.384Z,95914.76
2022-09-12T02:56:01.679Z,95914.20
2022-09-12T02:58:58.974Z,95911.09
2022-09-12T03:01:38.511Z,95914.85
2022-09-12T03:04:37.277Z,95920.59
2022-09-12T03:07:23.575Z,95925.06
2022-09-12T03:10:09.776Z,95929.33
2022-09-12T03:13:15.471Z,95931.79
2022-09-12T03:16:06.964Z,95933.20
2022-09-12T03:19:06.913Z,95931.60
2022-09-12T03:21:52.900Z,95940.38
2022-09-12T03:24:32.236Z,95944.65
2022-09-12T03:27:11.734Z,95950.79
2022-09-12T03:29:41.899Z,95947.73
2022-09-12T03:32:09.718Z,95944.09
2022-09-12T03:34:37.683Z,95951.08
2022-09-12T03:37:06.219Z,95957.55
2022-09-12T03:39:34.135Z,95962.73
2022-09-12T03:42:02.120Z,95959.65
2022-09-12T03:44:30.004Z,95965.96
2022-09-12T03:46:57.995Z,95964.92
2022-09-12T03:49:25.901Z,95967.13
2022-09-12T03:52:01.753Z,95974.86
2022-09-12T03:54:29.831Z,95978.17
2022-09-12T03:56:57.776Z,95974.00
2022-09-12T03:59:25.627Z,95975.79
2022-09-12T04:01:53.555Z,95974.95
2022-09-12T04:04:21.493Z,95977.73
2022-09-12T04:06:49.621Z,95978.84
2022-09-12T04:09:17.547Z,95980.05
2022-09-12T04:11:45.545Z,95986.77
2022-09-12T04:14:13.410Z,95988.58
2022-09-12T04:16:41.472Z,95992.60
2022-09-12T04:19:11.745Z,95996.66
2022-09-12T04:21:40.569Z,96003.78
2022-09-12T04:24:08.524Z,95999.73
2022-09-12T04:26:36.577Z,96001.16
2022-09-12T04:29:04.443Z,96004.02
2022-09-12T04:31:32.395Z,96006.39
2022-09-12T04:34:01.352Z,96003.30
2022-09-12T04:36:29.945Z,96007.93
2022-09-12T04:38:58.567Z,96011.88
2022-09-12T04:41:28.878Z,96016.56
2022-09-12T04:43:59.437Z,96016.36
2022-09-12T04:46:28.964Z,96019.30
2022-09-12T04:48:57.328Z,96013.73
2022-09-12T04:51:28.427Z,96022.41
2022-09-12T04:53:59.996Z,96023.89
2022-09-12T04:56:30.364Z,96024.63
2022-09-12T04:59:01.739Z,96027.61
2022-09-12T05:01:30.384Z,96029.98
2022-09-12T05:04:00.201Z,96028.17
2022-09-12T05:06:31.505Z,96027.23
2022-09-12T05:09:02.033Z,96026.55
2022-09-12T05:12:04.631Z,96030.93
2022-09-12T05:18:33.443Z,96043.09
2022-09-12T05:21:48.451Z,96047.13
2022-09-12T05:28:38.714Z,96044.61
2022-09-12T05:31:51.440Z,96054.48
2022-09-12T05:35:09.545Z,96058.54
2022-09-12T05:41:45.777Z,96054.96
2022-09-12T05:55:07.915Z,96052.86
2022-09-12T05:58:22.529Z,96055.75
2022-09-12T06:04:42.409Z,96050.38
2022-09-12T06:12:01.832Z,96049.42
2022-09-12T06:22:46.492Z,96044.61
2022-09-12T06:25:33.774Z,96051.50
2022-09-12T06:28:05.722Z,96047.92
2022-09-12T06:30:41.555Z,96049.20
2022-09-12T06:33:18.292Z,96054.88
2022-09-12T06:36:12.184Z,96064.92
2022-09-12T06:38:43.667Z,96064.75
2022-09-12T06:41:57.472Z,96059.05
2022-09-12T06:45:15.516Z,96062.27
2022-09-12T06:48:21.469Z,96059.48
2022-09-12T06:51:49.875Z,96065.69
2022-09-12T06:55:10.598Z,96061.00
2022-09-12T06:58:17.600Z,96052.79
2022-09-12T07:04:39.737Z,96065.83
2022-09-12T07:08:17.517Z,96064.30
2022-09-12T07:15:20.542Z,96069.02
2022-09-12T07:25:10.777Z,96077.70
2022-09-12T07:31:51.630Z,96078.73
2022-09-12T07:34:30.955Z,96076.02
2022-09-12T07:37:44.798Z,96079.15
2022-09-12T07:40:21.995Z,96080.00
2022-09-12T07:43:18.166Z,96085.55
2022-09-12T07:47:19.754Z,96090.10
2022-09-12T07:49:23.150Z,96088.54
2022-09-12T07:52:04.727Z,96090.70
2022-09-12T08:13:21.577Z,96085.64
2022-09-12T08:17:27.200Z,96082.81
2022-09-12T08:21:02.012Z,96092.17
2022-09-12T08:36:54.520Z,96077.52
2022-09-12T08:40:55.174Z,96085.13
2022-09-12T08:47:49.601Z,96069.41
2022-09-12T08:58:07.563Z,96071.19
2022-09-12T09:01:23.126Z,96074.84
2022-09-12T09:07:53.521Z,96066.80
2022-09-12T09:10:56.656Z,96079.29
2022-09-12T09:14:15.345Z,96068.54
2022-09-12T09:17:15.329Z,96077.14
2022-09-12T09:20:45.030Z,96065.70
2022-09-12T09:23:23.464Z,96070.89
2022-09-12T09:26:26.780Z,96063.21
2022-09-12T09:29:26.407Z,96069.20
2022-09-12T09:32:44.397Z,96070.95
2022-09-12T09:35:49.062Z,96068.08
2022-09-12T09:39:01.244Z,96068.55
2022-09-12T09:41:58.428Z,96071.17
2022-09-12T09:44:31.260Z,96079.92
2022-09-12T09:47:00.384Z,96078.92
2022-09-12T09:49:57.102Z,96077.90
2022-09-12T09:52:57.307Z,96084.26
2022-09-12T09:55:47.658Z,96079.30
2022-09-12T10:01:44.883Z,96079.03
2022-09-12T10:04:28.240Z,96075.52
2022-09-12T10:07:12.509Z,96079.50
2022-09-12T10:09:41.409Z,96077.61
2022-09-12T10:12:23.671Z,96077.41
2022-09-12T10:15:33.604Z,96083.05
2022-09-12T10:18:08.163Z,96086.56
2022-09-12T10:21:12.065Z,96079.48
2022-09-12T10:24:06.489Z,96076.05
2022-09-12T10:27:12.417Z,96066.94
2022-09-12T10:29:59.812Z,96070.36
2022-09-12T10:36:07.386Z,96078.52
2022-09-12T10:38:52.035Z,96082.39
2022-09-12T10:41:40.508Z,96086.91
2022-09-12T10:44:26.170Z,96077.80
2022-09-12T10:47:46.500Z,96078.94
2022-09-12T10:50:50.082Z,96088.27
2022-09-12T10:53:44.885Z,96077.98
2022-09-12T10:56:28.121Z,96094.89
2022-09-12T10:59:37.509Z,96088.24
2022-09-12T11:05:32.389Z,96083.84
2022-09-12T11:08:32.988Z,96089.17
2022-09-12T11:11:42.482Z,96089.86
2022-09-12T11:14:52.754Z,96096.73
2022-09-12T11:17:43.343Z,96102.77
2022-09-12T11:20:34.578Z,96096.43
2022-09-12T11:23:20.851Z,96096.45
2022-09-12T11:26:32.810Z,96095.02
2022-09-12T11:33:09.850Z,96099.25
2022-09-12T11:36:05.541Z,96106.44
2022-09-12T11:42:12.008Z,96094.14
2022-09-12T11:48:29.321Z,96101.16
2022-09-12T11:51:11.615Z,96102.75
2022-09-12T11:53:59.500Z,96100.40
2022-09-12T11:56:32.101Z,96102.96
2022-09-12T11:59:30.443Z,96097.55
2022-09-12T12:02:44.586Z,96103.57
2022-09-12T12:05:40.806Z,96095.81
2022-09-12T12:08:23.791Z,96095.42
2022-09-12T12:10:58.495Z,96098.58
2022-09-12T12:13:59.407Z,96101.07
2022-09-12T12:16:51.610Z,96099.45
2022-09-12T12:19:33.688Z,96095.23
2022-09-12T12:22:19.982Z,96088.98
2022-09-12T12:25:29.692Z,96084.81
2022-09-12T12:28:01.968Z,96092.54
2022-09-12T12:31:00.338Z,96087.07
2022-09-12T12:33:54.664Z,96091.41
2022-09-12T12:36:50.345Z,96087.30
2022-09-12T12:40:03.627Z,96092.80
2022-09-12T12:43:05.148Z,96088.60
2022-09-12T12:45:48.365Z,96090.77
2022-09-12T12:48:20.642Z,96093.96
2022-09-12T12:50:49.579Z,96094.60
2022-09-12T12:53:23.498Z,96095.49
2022-09-12T12:55:54.874Z,96104.71
2022-09-12T12:58:40.610Z,96101.09
2022-09-12T13:01:15.954Z,96096.33
2022-09-12T13:04:02.030Z,96090.98
2022-09-12T13:06:38.126Z,96095.45
2022-09-12T13:09:28.804Z,96097.13
2022-09-12T13:12:20.990Z,96097.18
2022-09-12T13:15:16.232Z,96092.35
2022-09-12T13:18:06.571Z,96089.54
2022-09-12T13:20:51.784Z,96094.56
2022-09-12T13:23:33.520Z,96087.89
2022-09-12T13:26:48.812Z,96099.06
2022-09-12T13:29:28.172Z,96094.35
2022-09-12T13:32:28.265Z,96097.80
2022-09-12T13:35:34.893Z,96090.29
2022-09-12T13:38:31.746Z,96101.67
2022-09-12T13:41:40.112Z,96092.06
2022-09-12T13:44:30.678Z,96090.63
2022-09-12T13:47:13.971Z,96091.85
2022-09-12T13:50:14.518Z,96088.91
2022-09-12T13:52:59.072Z,96095.02
2022-09-12T13:55:54.534Z,96089.65
2022-09-12T13:58:42.369Z,96088.86
2022-09-12T14:01:54.254Z,96092.09
2022-09-12T14:04:52.401Z,96096.49
2022-09-12T14:08:03.635Z,96093.59
2022-09-12T14:10:55.321Z,96098.40
2022-09-12T14:13:40.089Z,96096.05
2022-09-12T14:16:25.027Z,96092.84
2022-09-12T14:19:53.582Z,96094.43
2022-09-12T14:22:45.582Z,96089.52
2022-09-12T14:25:31.194Z,96092.18
2022-09-12T14:28:23.961Z,96088.09
2022-09-12T14:31:24.346Z,96090.81
2022-09-12T14:34:22.955Z,96078.36
2022-09-12T14:36:57.278Z,96077.61
2022-09-12T14:39:45.873Z,96079.22
2022-09-12T14:42:36.264Z,96084.98
2022-09-12T14:45:17.306Z,96079.47
2022-09-12T14:47:50.792Z,96078.33
2022-09-12T14:50:44.915Z,96076.10
2022-09-12T14:53:35.976Z,96076.52
2022-09-12T14:56:54.869Z,96078.88
2022-09-12T14:59:42.966Z,96087.12
2022-09-12T15:03:10.875Z,96078.92
2022-09-12T15:09:48.103Z,96078.62
2022-09-12T15:12:37.956Z,96078.43
2022-09-12T15:15:55.552Z,96078.06
2022-09-12T15:18:43.839Z,96076.70
2022-09-12T15:22:02.238Z,96077.60
2022-09-12T15:24:31.350Z,96078.52
2022-09-12T15:27:01.900Z,96081.96
2022-09-12T15:29:30.037Z,96078.14
2022-09-12T15:32:27.522Z,96077.87
2022-09-12T15:35:22.515Z,96079.81
2022-09-12T15:42:46.499Z,96075.81
2022-09-12T15:46:24.812Z,96073.77
2022-09-12T15:49:05.559Z,96071.02
2022-09-12T15:52:36.523Z,96075.40
2022-09-12T15:55:44.670Z,96079.58
2022-09-12T16:03:17.242Z,96073.74
2022-09-12T16:06:18.437Z,96067.35
2022-09-12T16:08:46.291Z,96067.48
2022-09-12T16:11:30.526Z,96071.73
2022-09-12T16:13:58.513Z,96077.88
2022-09-12T16:16:29.852Z,96079.13
2022-09-12T16:18:58.235Z,96080.75
2022-09-12T16:21:29.604Z,96083.89
2022-09-12T16:23:58.663Z,96081.59
2022-09-12T16:26:28.739Z,96083.55
2022-09-12T16:29:16.874Z,96085.42
2022-09-12T16:31:44.941Z,96083.30
2022-09-12T16:34:13.729Z,96079.67
2022-09-12T16:37:40.894Z,96086.09
2022-09-12T16:40:09.709Z,96088.20
2022-09-12T16:42:40.718Z,96087.30
2022-09-12T16:45:12.452Z,96086.75
2022-09-12T16:47:40.409Z,96083.55
2022-09-12T16:50:08.623Z,96090.98
2022-09-12T16:52:36.934Z,96087.40
2022-09-12T16:55:05.445Z,96089.74
2022-09-12T16:57:33.382Z,96089.05
2022-09-12T17:00:01.681Z,96091.23
2022-09-12T17:02:29.892Z,96087.68
2022-09-12T17:05:01.651Z,96087.19
2022-09-12T17:07:29.681Z,96090.30
2022-09-12T17:09:58.373Z,96092.48
2022-09-12T17:12:29.102Z,96096.16
2022-09-12T17:15:24.953Z,96094.48
2022-09-12T17:17:53.017Z,96093.94
2022-09-12T17:20:20.891Z,96093.95
2022-09-12T17:23:10.652Z,96096.94
2022-09-12T17:26:11.992Z,96098.55
2022-09-12T17:28:41.017Z,96095.27
2022-09-12T17:31:33.520Z,96095.65
2022-09-12T17:34:48.453Z,96097.02
2022-09-12T17:37:56.742Z,96100.25
2022-09-12T17:40:58.891Z,96101.93
2022-09-12T17:44:08.163Z,96099.16
2022-09-12T17:46:52.023Z,96102.41
2022-09-12T17:49:40.376Z,96103.71
2022-09-12T17:52:50.534Z,96101.58
2022-09-12T17:55:45.875Z,96103.19
2022-09-12T17:58:35.347Z,96110.20
2022-09-12T18:01:54.091Z,96117.67
2022-09-12T18:04:49.204Z,96132.23
2022-09-12T18:08:26.486Z,96129.45
2022-09-12T18:11:29.855Z,96132.52
2022-09-12T18:14:53.517Z,96133.04
2022-09-12T18:17:45.500Z,96139.34
2022-09-12T18:20:53.835Z,96143.63
2022-09-12T18:23:35.346Z,96147.90
2022-09-12T18:26:17.331Z,96147.00
2022-09-12T18:28:46.387Z,96149.07
2022-09-12T18:31:17.427Z,96147.88
2022-09-12T18:34:15.807Z,96153.74
2022-09-12T18:37:27.322Z,96159.36
2022-09-12T18:39:55.639Z,96158.61
2022-09-12T18:42:26.288Z,96160.84
2022-09-12T18:44:54.661Z,96155.94
2022-09-12T18:47:23.697Z,96153.15
2022-09-12T18:50:32.606Z,96158.06
2022-09-12T18:56:59.562Z,96165.17
2022-09-12T19:00:57.112Z,96173.45
2022-09-12T19:03:37.320Z,96172.56
2022-09-12T19:06:09.215Z,96172.61
2022-09-12T19:08:37.181Z,96172.71
2022-09-12T19:11:05.693Z,96171.04
2022-09-12T19:13:37.057Z,96168.66
2022-09-12T19:16:12.377Z,96163.98
2022-09-12T19:18:50.564Z,96164.39
2022-09-12T19:21:22.421Z,96171.30
2022-09-12T19:23:52.436Z,96170.35
2022-09-12T19:26:28.906Z,96170.56
2022-09-12T19:29:37.227Z,96170.61
2022-09-12T19:32:15.492Z,96175.79
2022-09-12T19:34:43.963Z,96173.41
2022-09-12T19:37:12.216Z,96172.30
2022-09-12T19:39:43.058Z,96173.46
2022-09-12T19:42:11.130Z,96175.73
2022-09-12T19:44:39.769Z,96180.30
2022-09-12T19:47:09.348Z,96180.10
2022-09-12T19:49:37.378Z,96183.09
2022-09-12T19:52:05.730Z,96185.41
2022-09-12T19:54:33.633Z,96181.52
2022-09-12T19:57:01.645Z,96180.89
2022-09-12T19:59:29.908Z,96176.78
2022-09-12T20:01:58.443Z,96177.68
2022-09-12T20:04:26.843Z,96177.88
2022-09-12T20:06:55.125Z,96179.46
2022-09-12T20:09:23.030Z,96183.95
2022-09-12T20:11:51.049Z,96182.58
2022-09-12T20:14:21.272Z,96180.30
2022-09-12T20:16:49.475Z,96178.05
2022-09-12T20:19:17.725Z,96181.58
2022-09-12T20:21:46.449Z,96184.67
2022-09-12T20:24:16.021Z,96182.73
2022-09-12T20:26:44.184Z,96185.94
2022-09-12T20:29:13.192Z,96181.88
2022-09-12T20:31:43.493Z,96183.92
2022-09-12T20:34:16.189Z,96185.33
2022-09-12T20:36:45.492Z,96182.89
2022-09-12T20:39:16.295Z,96179.68
2022-09-12T20:41:44.678Z,96182.11
2022-09-12T20:44:13.235Z,96175.48
2022-09-12T20:46:41.593Z,96177.45
2022-09-12T20:49:10.190Z,96178.66
2022-09-12T20:51:43.139Z,96179.59
2022-09-12T20:54:12.710Z,96181.07
2022-09-12T20:56:40.839Z,96172.54
2022-09-12T20:59:12.664Z,96175.18
2022-09-12T21:01:40.745Z,96176.11
2022-09-12T21:04:14.317Z,96177.42
2022-09-12T21:06:43.445Z,96177.42
2022-09-12T21:09:11.777Z,96176.75
2022-09-12T21:11:39.904Z,96179.33
2022-09-12T21:14:08.915Z,96176.66
2022-09-12T21:16:38.643Z,96178.39
2022-09-12T21:19:10.839Z,96177.77
2022-09-12T21:21:39.046Z,96176.80
2022-09-12T21:24:07.527Z,96176.91
2022-09-12T21:26:36.080Z,96183.64
2022-09-12T21:29:04.294Z,96178.80
2022-09-12T21:31:33.086Z,96177.58
2022-09-12T21:34:01.176Z,96174.63
2022-09-12T21:36:29.217Z,96176.23
2022-09-12T21:38:59.057Z,96178.02
2022-09-12T21:41:28.816Z,96175.75
2022-09-12T21:43:57.067Z,96172.16
2022-09-12T21:46:25.022Z,96170.39
2022-09-12T21:48:53.713Z,96170.71
2022-09-12T21:51:22.118Z,96166.78
2022-09-12T21:54:10.215Z,96166.77
2022-09-12T21:56:40.542Z,96162.66
2022-09-12T21:59:17.273Z,96160.89
2022-09-12T22:01:45.100Z,96155.34
2022-09-12T22:04:13.211Z,96154.86
2022-09-12T22:06:41.385Z,96150.39
2022-09-12T22:09:09.748Z,96148.49
2022-09-12T22:11:37.772Z,96149.05
2022-09-12T22:14:06.035Z,96146.83
2022-09-12T22:16:34.411Z,96144.86
2022-09-12T22:19:02.368Z,96144.02
2022-09-12T22:21:31.244Z,96143.81
2022-09-12T22:24:13.288Z,96138.05
2022-09-12T22:26:44.849Z,96136.94
2022-09-12T22:29:13.643Z,96137.62
2022-09-12T22:31:43.553Z,96137.77
2022-09-12T22:34:11.534Z,96134.52
2022-09-12T22:36:40.208Z,96135.92
2022-09-12T22:39:09.201Z,96135.38
2022-09-12T22:41:38.330Z,96137.04
2022-09-12T22:44:11.179Z,96135.89
2022-09-12T22:46:42.096Z,96130.56
2022-09-12T22:49:10.402Z,96129.24
2022-09-12T22:51:40.971Z,96131.50
2022-09-12T22:54:10.332Z,96134.41
2022-09-12T22:56:38.284Z,96131.56
2022-09-12T22:59:06.816Z,96128.89
2022-09-12T23:01:35.740Z,96125.11
2022-09-12T23:04:05.596Z,96120.69
2022-09-12T23:06:33.975Z,96118.73
2022-09-12T23:09:01.987Z,96116.11
2022-09-12T23:11:29.944Z,96114.79
2022-09-12T23:13:58.766Z,96114.86
2022-09-12T23:16:28.451Z,96113.73
2022-09-12T23:18:56.598Z,96114.47
2022-09-12T23:21:25.236Z,96110.70
2022-09-12T23:23:54.061Z,96108.02
2022-09-12T23:26:29.674Z,96101.13
2022-09-12T23:29:02.504Z,96101.69
2022-09-12T23:31:32.761Z,96101.19
2022-09-12T23:34:06.027Z,96098.55
2022-09-12T23:36:36.270Z,96095.03
2022-09-12T23:39:07.640Z,96099.09
2022-09-12T23:41:35.958Z,96094.20
2022-09-12T23:44:05.889Z,96095.30
2022-09-12T23:46:33.944Z,96093.19
2022-09-12T23:49:02.127Z,96093.13
2022-09-12T23:51:31.258Z,96090.75
2022-09-12T23:53:59.190Z,96090.37
2022-09-12T23:56:27.297Z,96090.04
2022-09-12T23:58:55.232Z,96091.98
